createdAt,value
2018-10-07T00:02:07.252Z,-4.05
2018-10-07T00:04:34.921Z,-4.04
2018-10-07T00:07:02.540Z,-4.06
2018-10-07T00:09:30.173Z,-4.05
2018-10-07T00:11:57.813Z,-4.08
2018-10-07T00:14:25.427Z,-4.07
2018-10-07T00:16:53.089Z,-4.07
2018-10-07T00:19:20.720Z,-4.09
2018-10-07T00:21:48.476Z,-4.08
2018-10-07T00:24:16.092Z,-4.09
2018-10-07T00:26:43.755Z,-4.09
2018-10-07T00:29:11.398Z,-4.10
2018-10-07T00:31:44.590Z,-4.09
2018-10-07T00:34:12.262Z,-4.11
2018-10-07T00:36:39.920Z,-4.11
2018-10-07T00:39:08.993Z,-4.11
2018-10-07T00:41:36.637Z,-4.11
2018-10-07T00:44:04.297Z,-4.13
2018-10-07T00:46:31.989Z,-4.13
2018-10-07T00:48:59.691Z,-4.12
2018-10-07T00:51:27.372Z,-4.14
2018-10-07T00:53:54.992Z,-4.17
2018-10-07T00:56:22.702Z,-4.15
2018-10-07T00:58:50.464Z,-4.17
2018-10-07T01:01:18.123Z,-4.18
2018-10-07T01:03:45.775Z,-4.18
2018-10-07T01:06:13.460Z,-4.21
2018-10-07T01:08:41.105Z,-4.20
2018-10-07T01:11:08.779Z,-4.22
2018-10-07T01:13:36.428Z,-4.21
2018-10-07T01:16:04.096Z,-4.20
2018-10-07T01:18:31.776Z,-4.23
2018-10-07T01:20:59.651Z,-4.26
2018-10-07T01:23:27.284Z,-4.24
2018-10-07T01:25:54.927Z,-4.27
2018-10-07T01:28:22.612Z,-4.28
2018-10-07T01:30:50.277Z,-4.29
2018-10-07T01:33:17.932Z,-4.30
2018-10-07T01:35:45.585Z,-4.30
2018-10-07T01:38:13.262Z,-4.31
2018-10-07T01:40:40.884Z,-4.32
2018-10-07T01:43:08.511Z,-4.32
2018-10-07T01:45:36.167Z,-4.35
2018-10-07T01:48:03.817Z,-4.35
2018-10-07T01:50:31.478Z,-4.38
2018-10-07T01:52:59.200Z,-4.37
2018-10-07T01:55:26.900Z,-4.35
2018-10-07T01:57:54.516Z,-4.35
2018-10-07T02:00:22.190Z,-4.35
2018-10-07T02:02:49.797Z,-4.34
2018-10-07T02:05:17.457Z,-4.34
2018-10-07T02:07:45.121Z,-4.31
2018-10-07T02:10:12.736Z,-4.31
2018-10-07T02:12:40.369Z,-4.33
2018-10-07T02:15:08.018Z,-4.36
2018-10-07T02:17:35.681Z,-4.37
2018-10-07T02:20:03.502Z,-4.40
2018-10-07T02:22:31.138Z,-4.43
2018-10-07T02:24:58.764Z,-4.43
2018-10-07T02:27:26.425Z,-4.48
2018-10-07T02:29:54.092Z,-4.48
2018-10-07T02:32:21.801Z,-4.50
2018-10-07T02:34:49.421Z,-4.53
2018-10-07T02:37:17.085Z,-4.56
2018-10-07T02:39:44.753Z,-4.56
2018-10-07T02:42:12.365Z,-4.56
2018-10-07T02:44:40.029Z,-4.57
2018-10-07T02:47:07.656Z,-4.58
2018-10-07T02:49:35.286Z,-4.58
2018-10-07T02:52:03.181Z,-4.62
2018-10-07T02:54:31.030Z,-4.58
2018-10-07T02:56:58.694Z,-4.56
2018-10-07T02:59:26.551Z,-4.59
2018-10-07T03:01:54.401Z,-4.65
2018-10-07T03:04:22.054Z,-4.70
2018-10-07T03:06:49.691Z,-4.72
2018-10-07T03:09:17.344Z,-4.76
2018-10-07T03:11:44.971Z,-4.77
2018-10-07T03:14:12.641Z,-4.79
2018-10-07T03:16:40.292Z,-4.83
2018-10-07T03:19:07.939Z,-4.85
2018-10-07T03:21:35.590Z,-4.88
2018-10-07T03:24:03.216Z,-4.90
2018-10-07T03:26:30.924Z,-4.89
2018-10-07T03:28:58.549Z,-4.88
2018-10-07T03:31:26.193Z,-4.90
2018-10-07T03:33:53.857Z,-4.92
2018-10-07T03:36:21.469Z,-4.95
2018-10-07T03:38:49.159Z,-4.95
2018-10-07T03:41:16.863Z,-4.97
2018-10-07T03:43:44.472Z,-4.98
2018-10-07T03:46:12.177Z,-5.01
2018-10-07T03:48:39.780Z,-5.01
2018-10-07T03:51:07.418Z,-5.01
2018-10-07T03:53:35.085Z,-5.01
2018-10-07T03:56:02.730Z,-5.04
2018-10-07T03:58:30.365Z,-5.07
2018-10-07T04:00:58.095Z,-5.07
2018-10-07T04:03:25.795Z,-5.05
2018-10-07T04:05:53.476Z,-5.05
2018-10-07T04:08:21.136Z,-5.09
2018-10-07T04:10:48.785Z,-5.11
2018-10-07T04:13:16.424Z,-5.13
2018-10-07T04:15:44.061Z,-5.16
2018-10-07T04:18:11.721Z,-5.19
2018-10-07T04:20:39.479Z,-5.21
2018-10-07T04:23:07.115Z,-5.23
2018-10-07T04:25:34.733Z,-5.20
2018-10-07T04:28:02.377Z,-5.21
2018-10-07T04:30:30.010Z,-5.25
2018-10-07T04:32:57.673Z,-5.27
2018-10-07T04:35:25.318Z,-5.29
2018-10-07T04:37:52.964Z,-5.33
2018-10-07T04:40:20.673Z,-5.32
2018-10-07T04:42:48.325Z,-5.29
2018-10-07T04:45:15.938Z,-5.28
2018-10-07T04:47:43.584Z,-5.29
2018-10-07T04:50:11.196Z,-5.31
2018-10-07T04:52:38.820Z,-5.32
2018-10-07T04:55:06.461Z,-5.30
2018-10-07T04:57:34.077Z,-5.32
2018-10-07T05:00:01.739Z,-5.33
2018-10-07T05:02:29.368Z,-5.34
2018-10-07T05:04:57.137Z,-5.34
2018-10-07T05:07:25.065Z,-5.36
2018-10-07T05:10:02.681Z,-5.34
2018-10-07T05:12:30.489Z,-5.34
2018-10-07T05:14:58.641Z,-5.34
2018-10-07T05:17:26.436Z,-5.34
2018-10-07T05:19:54.191Z,-5.32
2018-10-07T05:22:21.873Z,-5.29
2018-10-07T05:24:49.520Z,-5.28
2018-10-07T05:27:17.297Z,-5.28
2018-10-07T05:29:44.935Z,-5.26
2018-10-07T05:32:12.566Z,-5.23
2018-10-07T05:34:40.252Z,-5.22
2018-10-07T05:37:07.874Z,-5.20
2018-10-07T05:39:35.475Z,-5.20
2018-10-07T05:42:03.121Z,-5.19
2018-10-07T05:44:30.834Z,-5.17
2018-10-07T05:46:58.480Z,-5.16
2018-10-07T05:49:26.095Z,-5.13
2018-10-07T05:51:53.713Z,-5.11
2018-10-07T05:54:21.502Z,-5.08
2018-10-07T05:56:49.117Z,-5.05
2018-10-07T05:59:16.896Z,-4.99
2018-10-07T06:01:45.361Z,-4.95
2018-10-07T06:04:33.904Z,-4.88
2018-10-07T06:07:02.676Z,-4.80
2018-10-07T06:09:34.013Z,-4.73
2018-10-07T06:12:01.957Z,-4.62
2018-10-07T06:14:40.733Z,-4.49
2018-10-07T06:17:08.402Z,-4.35
2018-10-07T06:19:36.096Z,-4.22
2018-10-07T06:22:04.534Z,-4.09
2018-10-07T06:24:32.705Z,-3.99
2018-10-07T06:27:00.548Z,-3.86
2018-10-07T06:29:28.237Z,-3.69
2018-10-07T06:31:55.965Z,-3.51
2018-10-07T06:34:24.015Z,-3.36
2018-10-07T06:36:51.769Z,-3.17
2018-10-07T06:39:19.401Z,-2.99
2018-10-07T06:41:47.173Z,-2.83
2018-10-07T06:44:14.831Z,-2.60
2018-10-07T06:46:42.581Z,-2.39
2018-10-07T06:49:10.232Z,-2.09
2018-10-07T06:51:37.897Z,-1.81
2018-10-07T06:54:05.845Z,-1.59
2018-10-07T06:56:33.933Z,-1.28
2018-10-07T06:59:01.574Z,-0.96
2018-10-07T07:01:29.197Z,-0.70
2018-10-07T07:03:56.849Z,-0.46
2018-10-07T07:06:24.522Z,-0.14
2018-10-07T07:08:52.177Z,0.12
2018-10-07T07:11:19.829Z,0.41
2018-10-07T07:13:47.454Z,0.72
2018-10-07T07:16:15.073Z,1.04
2018-10-07T07:18:42.745Z,1.35
2018-10-07T07:21:11.177Z,1.64
2018-10-07T07:23:38.837Z,1.91
2018-10-07T07:26:06.521Z,2.16
2018-10-07T07:28:34.166Z,2.36
2018-10-07T07:31:01.810Z,2.49
2018-10-07T07:33:29.463Z,2.60
2018-10-07T07:35:57.072Z,2.83
2018-10-07T07:38:24.729Z,3.08
2018-10-07T07:40:52.353Z,3.31
2018-10-07T07:43:20.041Z,3.56
2018-10-07T07:45:47.669Z,3.77
2018-10-07T07:48:15.345Z,4.05
2018-10-07T07:50:43.069Z,4.24
2018-10-07T07:53:10.689Z,4.43
2018-10-07T07:55:38.318Z,4.56
2018-10-07T07:58:05.985Z,4.65
2018-10-07T08:00:33.648Z,4.74
2018-10-07T08:03:01.284Z,4.93
2018-10-07T08:05:29.164Z,5.18
2018-10-07T08:07:56.834Z,5.40
2018-10-07T08:10:24.441Z,5.47
2018-10-07T08:12:52.049Z,5.49
2018-10-07T08:15:19.686Z,5.74
2018-10-07T08:17:47.346Z,6.03
2018-10-07T08:20:15.197Z,6.14
2018-10-07T08:22:42.825Z,6.24
2018-10-07T08:25:10.450Z,6.37
2018-10-07T08:27:38.399Z,6.41
2018-10-07T08:30:06.174Z,6.62
2018-10-07T08:32:33.813Z,6.63
2018-10-07T08:35:01.529Z,6.88
2018-10-07T08:37:29.195Z,7.02
2018-10-07T08:39:56.872Z,6.97
2018-10-07T08:42:24.552Z,7.12
2018-10-07T08:44:52.177Z,7.33
2018-10-07T08:47:19.823Z,7.25
2018-10-07T08:49:47.464Z,7.26
2018-10-07T08:52:15.137Z,7.36
2018-10-07T08:54:42.789Z,7.53
2018-10-07T08:57:10.413Z,7.63
2018-10-07T08:59:38.105Z,7.50
2018-10-07T09:02:05.761Z,7.54
2018-10-07T09:04:33.393Z,7.72
2018-10-07T09:07:01.126Z,7.80
2018-10-07T09:09:28.765Z,7.87
2018-10-07T09:11:56.409Z,7.89
2018-10-07T09:14:24.081Z,8.21
2018-10-07T09:16:51.739Z,8.17
2018-10-07T09:19:19.372Z,7.94
2018-10-07T09:21:47.078Z,8.00
2018-10-07T09:24:14.732Z,8.15
2018-10-07T09:26:42.411Z,8.29
2018-10-07T09:29:10.154Z,8.47
2018-10-07T09:31:37.854Z,8.36
2018-10-07T09:34:05.569Z,8.38
2018-10-07T09:36:33.200Z,8.61
2018-10-07T09:39:00.856Z,8.71
2018-10-07T09:41:28.461Z,8.64
2018-10-07T09:43:56.101Z,8.39
2018-10-07T09:46:24.013Z,8.47
2018-10-07T09:48:51.980Z,8.58
2018-10-07T09:51:19.601Z,8.66
2018-10-07T09:53:47.243Z,8.55
2018-10-07T09:56:14.870Z,8.65
2018-10-07T09:58:42.513Z,8.72
2018-10-07T10:01:10.218Z,8.90
2018-10-07T10:03:37.865Z,9.13
2018-10-07T10:06:05.497Z,9.16
2018-10-07T10:08:33.472Z,8.94
2018-10-07T10:11:01.139Z,9.10
2018-10-07T10:13:28.765Z,9.09
2018-10-07T10:15:56.401Z,9.20
2018-10-07T10:18:25.881Z,9.33
2018-10-07T10:21:06.053Z,9.24
2018-10-07T10:24:42.979Z,9.20
2018-10-07T10:28:16.701Z,9.32
2018-10-07T10:30:55.424Z,9.56
2018-10-07T10:33:28.052Z,9.69
2018-10-07T10:36:03.616Z,9.75
2018-10-07T10:38:39.204Z,9.88
2018-10-07T10:41:24.940Z,10.21
2018-10-07T10:43:57.753Z,10.19
2018-10-07T10:46:30.149Z,10.13
2018-10-07T10:49:18.813Z,10.17
2018-10-07T10:51:52.298Z,10.25
2018-10-07T10:54:31.997Z,10.30
2018-10-07T10:57:09.034Z,10.21
2018-10-07T10:59:42.373Z,10.09
2018-10-07T11:02:32.568Z,10.18
2018-10-07T11:05:07.737Z,10.20
2018-10-07T11:08:00.122Z,10.04
2018-10-07T11:10:33.845Z,10.13
2018-10-07T11:13:06.273Z,10.23
2018-10-07T11:15:39.627Z,10.27
2018-10-07T11:18:14.713Z,10.22
2018-10-07T11:24:02.520Z,10.34
2018-10-07T11:26:36.791Z,9.87
2018-10-07T11:29:14.493Z,9.52
2018-10-07T11:31:51.397Z,9.44
2018-10-07T11:34:29.425Z,9.38
2018-10-07T11:37:05.137Z,9.10
2018-10-07T11:40:45.459Z,9.12
2018-10-07T11:44:20.993Z,9.14
2018-10-07T11:47:00.827Z,9.13
2018-10-07T11:49:34.801Z,9.00
2018-10-07T11:52:07.212Z,8.85
2018-10-07T11:55:08.057Z,8.62
2018-10-07T11:57:35.705Z,8.67
2018-10-07T12:00:03.637Z,8.56
2018-10-07T12:02:31.292Z,8.59
2018-10-07T12:04:58.921Z,8.50
2018-10-07T12:07:28.265Z,8.53
2018-10-07T12:09:55.909Z,8.39
2018-10-07T12:12:23.540Z,8.30
2018-10-07T12:14:51.209Z,8.22
2018-10-07T12:17:18.812Z,8.42
2018-10-07T12:19:46.437Z,8.43
2018-10-07T12:22:14.213Z,8.42
2018-10-07T12:24:41.838Z,8.39
2018-10-07T12:27:10.469Z,8.48
2018-10-07T12:29:38.192Z,8.35
2018-10-07T12:32:06.119Z,8.23
2018-10-07T12:34:33.761Z,8.03
2018-10-07T12:37:01.408Z,7.95
2018-10-07T12:39:29.070Z,7.93
2018-10-07T12:41:56.733Z,7.89
2018-10-07T12:44:24.344Z,7.88
2018-10-07T12:46:51.967Z,7.83
2018-10-07T12:49:19.621Z,7.66
2018-10-07T12:51:47.244Z,7.55
2018-10-07T12:54:14.876Z,7.42
2018-10-07T12:56:42.536Z,7.38
2018-10-07T12:59:10.152Z,7.33
2018-10-07T13:01:37.799Z,7.20
2018-10-07T13:04:05.486Z,7.00
2018-10-07T13:06:33.113Z,6.90
2018-10-07T13:09:00.761Z,6.79
2018-10-07T13:11:28.389Z,6.65
2018-10-07T13:13:56.030Z,6.49
2018-10-07T13:16:23.965Z,6.35
2018-10-07T13:18:51.613Z,6.31
2018-10-07T13:21:19.241Z,6.28
2018-10-07T13:23:46.881Z,6.27
2018-10-07T13:26:14.529Z,6.27
2018-10-07T13:28:42.180Z,6.13
2018-10-07T13:31:10.249Z,6.03
2018-10-07T13:33:37.959Z,5.93
2018-10-07T13:36:05.715Z,5.80
2018-10-07T13:38:33.567Z,5.65
2018-10-07T13:41:01.188Z,5.57
2018-10-07T13:43:28.838Z,5.45
2018-10-07T13:45:56.473Z,5.39
2018-10-07T13:48:24.129Z,5.31
2018-10-07T13:50:51.889Z,5.24
2018-10-07T13:53:19.564Z,5.15
2018-10-07T13:55:47.185Z,5.01
2018-10-07T13:58:15.020Z,4.93
2018-10-07T14:00:42.641Z,4.88
2018-10-07T14:03:10.338Z,4.83
2018-10-07T14:05:37.963Z,4.75
2018-10-07T14:08:05.656Z,4.74
2018-10-07T14:10:33.357Z,4.69
2018-10-07T14:13:00.985Z,4.71
2018-10-07T14:15:28.597Z,4.63
2018-10-07T14:17:56.257Z,4.54
2018-10-07T14:20:23.893Z,4.44
2018-10-07T14:22:51.549Z,4.32
2018-10-07T14:25:19.197Z,4.26
2018-10-07T14:27:46.849Z,4.20
2018-10-07T14:30:14.538Z,4.14
2018-10-07T14:32:42.149Z,4.09
2018-10-07T14:35:09.807Z,4.03
2018-10-07T14:37:37.470Z,3.95
2018-10-07T14:40:05.182Z,3.84
2018-10-07T14:42:32.859Z,3.74
2018-10-07T14:45:00.501Z,3.65
2018-10-07T14:47:28.191Z,3.58
2018-10-07T14:49:55.885Z,3.47
2018-10-07T14:52:23.537Z,3.41
2018-10-07T14:54:51.226Z,3.34
2018-10-07T14:57:18.861Z,3.27
2018-10-07T14:59:46.482Z,3.18
2018-10-07T15:02:14.176Z,3.11
2018-10-07T15:04:41.807Z,3.02
2018-10-07T15:07:09.444Z,2.93
2018-10-07T15:09:37.175Z,2.86
2018-10-07T15:12:04.803Z,2.75
2018-10-07T15:14:32.461Z,2.66
2018-10-07T15:17:00.131Z,2.56
2018-10-07T15:19:27.777Z,2.46
2018-10-07T15:21:55.472Z,2.36
2018-10-07T15:24:23.125Z,2.28
2018-10-07T15:26:50.734Z,2.21
2018-10-07T15:29:18.442Z,2.10
2018-10-07T15:31:48.794Z,2.01
2018-10-07T15:34:17.167Z,1.89
2018-10-07T15:36:45.451Z,1.79
2018-10-07T15:39:13.647Z,1.68
2018-10-07T15:41:43.071Z,1.59
2018-10-07T15:44:11.041Z,1.47
2018-10-07T15:46:44.603Z,1.35
2018-10-07T15:49:12.269Z,1.18
2018-10-07T15:51:40.085Z,1.05
2018-10-07T15:54:09.044Z,0.98
2018-10-07T15:56:38.026Z,0.91
2018-10-07T15:59:12.589Z,0.80
2018-10-07T16:01:43.776Z,0.64
2018-10-07T16:04:12.318Z,0.53
2018-10-07T16:06:39.981Z,0.39
2018-10-07T16:09:08.845Z,0.24
2018-10-07T16:11:36.596Z,0.12
2018-10-07T16:14:04.294Z,0.00
2018-10-07T16:16:31.940Z,-0.12
2018-10-07T16:18:59.707Z,-0.20
2018-10-07T16:21:27.921Z,-0.28
2018-10-07T16:23:55.906Z,-0.38
2018-10-07T16:26:23.696Z,-0.47
2018-10-07T16:28:51.269Z,-0.55
2018-10-07T16:31:18.904Z,-0.65
2018-10-07T16:33:46.625Z,-0.75
2018-10-07T16:36:14.617Z,-0.82
2018-10-07T16:38:42.244Z,-0.88
2018-10-07T16:41:09.909Z,-0.98
2018-10-07T16:43:38.524Z,-1.15
2018-10-07T16:46:06.506Z,-1.26
2018-10-07T16:48:34.154Z,-1.36
2018-10-07T16:51:01.805Z,-1.46
2018-10-07T16:53:30.193Z,-1.51
2018-10-07T16:55:58.120Z,-1.58
2018-10-07T16:58:25.889Z,-1.67
2018-10-07T17:00:53.533Z,-1.79
2018-10-07T17:03:21.189Z,-1.91
2018-10-07T17:05:49.829Z,-2.03
2018-10-07T17:08:17.692Z,-2.09
2018-10-07T17:10:45.443Z,-2.18
2018-10-07T17:13:13.246Z,-2.23
2018-10-07T17:15:40.805Z,-2.26
2018-10-07T17:18:08.725Z,-2.24
2018-10-07T17:20:36.352Z,-2.23
2018-10-07T17:23:04.054Z,-2.26
2018-10-07T17:25:31.839Z,-2.36
2018-10-07T17:27:59.565Z,-2.39
2018-10-07T17:30:27.218Z,-2.42
2018-10-07T17:32:54.918Z,-2.44
2018-10-07T17:35:22.634Z,-2.44
2018-10-07T17:37:50.344Z,-2.47
2018-10-07T17:40:18.029Z,-2.51
2018-10-07T17:42:45.760Z,-2.52
2018-10-07T17:45:13.316Z,-2.55
2018-10-07T17:47:41.005Z,-2.63
2018-10-07T17:50:08.690Z,-2.70
2018-10-07T17:52:36.365Z,-2.75
2018-10-07T17:55:04.116Z,-2.84
2018-10-07T17:57:31.849Z,-2.99
2018-10-07T17:59:59.497Z,-2.97
2018-10-07T18:02:27.148Z,-3.02
2018-10-07T18:04:54.903Z,-3.06
2018-10-07T18:07:22.812Z,-3.10
2018-10-07T18:09:50.461Z,-3.12
2018-10-07T18:12:18.113Z,-3.16
2018-10-07T18:14:45.729Z,-3.17
2018-10-07T18:17:13.430Z,-3.19
2018-10-07T18:19:41.053Z,-3.23
2018-10-07T18:22:08.669Z,-3.28
2018-10-07T18:24:36.384Z,-3.32
2018-10-07T18:27:04.021Z,-3.36
2018-10-07T18:29:31.690Z,-3.40
2018-10-07T18:31:59.337Z,-3.43
2018-10-07T18:34:27.041Z,-3.46
2018-10-07T18:36:54.751Z,-3.49
2018-10-07T18:39:22.383Z,-3.51
2018-10-07T18:41:50.026Z,-3.51
2018-10-07T18:44:17.855Z,-3.54
2018-10-07T18:46:45.501Z,-3.55
2018-10-07T18:49:13.252Z,-3.57
2018-10-07T18:51:41.237Z,-3.60
2018-10-07T18:54:09.141Z,-3.61
2018-10-07T18:56:36.898Z,-3.62
2018-10-07T18:59:04.773Z,-3.66
2018-10-07T19:01:32.574Z,-3.68
2018-10-07T19:04:00.221Z,-3.70
2018-10-07T19:06:28.090Z,-3.70
2018-10-07T19:08:55.810Z,-3.70
2018-10-07T19:11:23.497Z,-3.70
2018-10-07T19:13:51.149Z,-3.72
2018-10-07T19:16:18.785Z,-3.76
2018-10-07T19:18:46.437Z,-3.78
2018-10-07T19:21:14.327Z,-3.80
2018-10-07T19:23:41.999Z,-3.82
2018-10-07T19:26:09.696Z,-3.84
2018-10-07T19:28:37.365Z,-3.88
2018-10-07T19:31:05.249Z,-3.92
2018-10-07T19:33:32.899Z,-3.93
2018-10-07T19:36:00.541Z,-3.95
2018-10-07T19:38:28.177Z,-3.96
2018-10-07T19:40:55.869Z,-3.99
2018-10-07T19:43:23.518Z,-4.02
2018-10-07T19:45:51.238Z,-4.06
2018-10-07T19:48:18.964Z,-4.08
2018-10-07T19:50:46.616Z,-4.09
2018-10-07T19:53:14.319Z,-4.11
2018-10-07T19:55:42.002Z,-4.12
2018-10-07T19:58:09.696Z,-4.15
2018-10-07T20:00:37.465Z,-4.16
2018-10-07T20:03:05.144Z,-4.16
2018-10-07T20:05:32.917Z,-4.18
2018-10-07T20:08:00.580Z,-4.18
2018-10-07T20:10:28.474Z,-4.22
2018-10-07T20:12:56.148Z,-4.26
2018-10-07T20:15:23.874Z,-4.27
2018-10-07T20:17:51.523Z,-4.25
2018-10-07T20:20:19.174Z,-4.26
2018-10-07T20:22:46.883Z,-4.30
2018-10-07T20:25:14.536Z,-4.38
2018-10-07T20:27:42.239Z,-4.45
2018-10-07T20:30:10.233Z,-4.53
2018-10-07T20:32:39.876Z,-4.59
2018-10-07T20:35:07.533Z,-4.65
2018-10-07T20:37:35.315Z,-4.65
2018-10-07T20:40:03.198Z,-4.64
2018-10-07T20:42:30.989Z,-4.62
2018-10-07T20:44:59.101Z,-4.63
2018-10-07T20:47:26.761Z,-4.74
2018-10-07T20:49:54.421Z,-4.79
2018-10-07T20:52:22.065Z,-4.79
2018-10-07T20:54:49.750Z,-4.79
2018-10-07T20:57:17.373Z,-4.82
2018-10-07T20:59:45.053Z,-4.85
2018-10-07T21:02:12.785Z,-4.86
2018-10-07T21:04:40.592Z,-4.94
2018-10-07T21:07:08.457Z,-4.99
2018-10-07T21:09:36.101Z,-5.02
2018-10-07T21:12:04.045Z,-5.03
2018-10-07T21:14:31.805Z,-5.03
2018-10-07T21:16:59.464Z,-5.04
2018-10-07T21:19:27.101Z,-5.04
2018-10-07T21:21:54.807Z,-5.04
2018-10-07T21:24:22.507Z,-5.02
2018-10-07T21:26:50.111Z,-5.06
2018-10-07T21:29:17.977Z,-5.09
2018-10-07T21:31:45.892Z,-5.11
2018-10-07T21:34:13.586Z,-5.13
2018-10-07T21:36:41.220Z,-5.17
2018-10-07T21:39:09.793Z,-5.22
2018-10-07T21:41:37.558Z,-5.25
2018-10-07T21:44:05.145Z,-5.26
2018-10-07T21:46:32.819Z,-5.27
2018-10-07T21:49:00.469Z,-5.32
2018-10-07T21:51:28.088Z,-5.38
2018-10-07T21:53:55.723Z,-5.39
2018-10-07T21:56:23.372Z,-5.40
2018-10-07T21:58:51.050Z,-5.40
2018-10-07T22:01:18.729Z,-5.43
2018-10-07T22:03:46.366Z,-5.44
2018-10-07T22:06:13.999Z,-5.48
2018-10-07T22:08:41.701Z,-5.56
2018-10-07T22:11:09.384Z,-5.62
2018-10-07T22:13:37.033Z,-5.62
2018-10-07T22:16:04.733Z,-5.61
2018-10-07T22:18:32.360Z,-5.60
2018-10-07T22:21:00.001Z,-5.62
2018-10-07T22:23:27.656Z,-5.61
2018-10-07T22:25:55.309Z,-5.59
2018-10-07T22:28:22.988Z,-5.59
2018-10-07T22:30:50.637Z,-5.58
2018-10-07T22:33:18.267Z,-5.58
2018-10-07T22:35:45.941Z,-5.58
2018-10-07T22:38:13.600Z,-5.55
2018-10-07T22:40:41.266Z,-5.56
2018-10-07T22:43:08.933Z,-5.60
2018-10-07T22:45:36.593Z,-5.61
2018-10-07T22:48:04.271Z,-5.60
2018-10-07T22:50:31.998Z,-5.60
2018-10-07T22:52:59.625Z,-5.58
2018-10-07T22:55:27.985Z,-5.58
2018-10-07T22:57:55.642Z,-5.56
2018-10-07T23:00:23.372Z,-5.52
2018-10-07T23:02:51.198Z,-5.54
2018-10-07T23:05:19.249Z,-5.55
2018-10-07T23:07:47.512Z,-5.58
2018-10-07T23:10:15.172Z,-5.58
2018-10-07T23:12:43.035Z,-5.59
2018-10-07T23:15:10.866Z,-5.59
2018-10-07T23:17:38.491Z,-5.57
2018-10-07T23:20:06.197Z,-5.56
2018-10-07T23:22:33.877Z,-5.55
2018-10-07T23:25:01.625Z,-5.51
2018-10-07T23:27:29.291Z,-5.48
2018-10-07T23:29:57.036Z,-5.44
2018-10-07T23:32:24.674Z,-5.42
2018-10-07T23:34:52.399Z,-5.43
2018-10-07T23:37:20.232Z,-5.46
2018-10-07T23:39:48.958Z,-5.49
2018-10-07T23:42:16.861Z,-5.47
2018-10-07T23:44:44.606Z,-5.45
2018-10-07T23:47:12.391Z,-5.39
2018-10-07T23:49:40.095Z,-5.36
2018-10-07T23:52:08.370Z,-5.34
2018-10-07T23:54:35.936Z,-5.34
2018-10-07T23:57:03.774Z,-5.34
2018-10-07T23:59:31.429Z,-5.34
